createdAt,value
2022-10-19T00:00:06.750Z,9.15
2022-10-19T00:01:06.745Z,9.11
2022-10-19T00:02:06.753Z,9.13
2022-10-19T00:03:06.743Z,9.08
2022-10-19T00:04:08.768Z,9.08
2022-10-19T00:05:06.692Z,9.03
2022-10-19T00:06:06.683Z,9.03
2022-10-19T00:07:06.684Z,9.05
2022-10-19T00:08:06.662Z,9.02
2022-10-19T00:09:06.643Z,9.02
2022-10-19T00:10:06.643Z,9.00
2022-10-19T00:11:06.635Z,8.97
2022-10-19T00:12:06.690Z,8.97
2022-10-19T00:13:06.604Z,8.95
2022-10-19T00:14:06.602Z,8.96
2022-10-19T00:15:06.582Z,8.93
2022-10-19T00:16:07.989Z,8.95
2022-10-19T00:17:06.562Z,8.93
2022-10-19T00:18:06.563Z,8.93
2022-10-19T00:19:06.552Z,8.90
2022-10-19T00:20:06.535Z,8.92
2022-10-19T00:21:06.515Z,8.90
2022-10-19T00:22:08.117Z,8.90
2022-10-19T00:23:06.500Z,8.89
2022-10-19T00:24:06.501Z,8.87
2022-10-19T00:25:06.479Z,8.87
2022-10-19T00:26:06.481Z,8.86
2022-10-19T00:27:06.451Z,8.84
2022-10-19T00:28:06.449Z,8.82
2022-10-19T00:29:06.497Z,8.81
2022-10-19T00:30:06.431Z,8.79
2022-10-19T00:31:06.411Z,8.78
2022-10-19T00:32:06.411Z,8.81
2022-10-19T00:33:06.390Z,8.78
2022-10-19T00:34:06.385Z,8.78
2022-10-19T00:35:06.373Z,8.75
2022-10-19T00:36:06.364Z,8.75
2022-10-19T00:37:06.356Z,8.72
2022-10-19T00:38:06.339Z,8.71
2022-10-19T00:39:06.338Z,8.69
2022-10-19T00:40:06.320Z,8.71
2022-10-19T00:41:06.308Z,8.69
2022-10-19T00:42:06.299Z,8.68
2022-10-19T00:43:06.279Z,8.66
2022-10-19T00:44:06.271Z,8.66
2022-10-19T00:45:06.261Z,8.66
2022-10-19T00:46:06.249Z,8.64
2022-10-19T00:47:06.236Z,8.63
2022-10-19T00:48:06.245Z,8.63
2022-10-19T00:49:09.824Z,8.61
2022-10-19T00:50:06.211Z,8.61
2022-10-19T00:51:06.199Z,8.61
2022-10-19T00:52:06.190Z,8.60
2022-10-19T00:53:06.167Z,8.59
2022-10-19T00:54:06.196Z,8.59
2022-10-19T00:55:06.159Z,8.54
2022-10-19T00:56:06.139Z,8.56
2022-10-19T00:57:06.128Z,8.54
2022-10-19T00:58:06.127Z,8.54
2022-10-19T00:59:06.107Z,8.56
2022-10-19T01:00:06.098Z,8.53
2022-10-19T01:01:06.134Z,8.52
2022-10-19T01:02:06.093Z,8.50
2022-10-19T01:03:06.068Z,8.46
2022-10-19T01:04:06.057Z,8.50
2022-10-19T01:05:06.046Z,8.49
2022-10-19T01:06:06.038Z,8.49
2022-10-19T01:07:06.020Z,8.46
2022-10-19T01:08:06.018Z,8.42
2022-10-19T01:09:06.001Z,8.44
2022-10-19T01:10:06.016Z,8.44
2022-10-19T01:11:05.977Z,8.41
2022-10-19T01:12:05.976Z,8.41
2022-10-19T01:13:05.986Z,8.41
2022-10-19T01:14:05.957Z,8.39
2022-10-19T01:15:05.936Z,8.38
2022-10-19T01:16:05.928Z,8.38
2022-10-19T01:17:05.915Z,8.38
2022-10-19T01:18:05.905Z,8.35
2022-10-19T01:19:05.886Z,8.34
2022-10-19T01:20:05.885Z,8.34
2022-10-19T01:21:05.877Z,8.34
2022-10-19T01:22:05.905Z,8.32
2022-10-19T01:23:05.853Z,8.35
2022-10-19T01:24:05.846Z,8.31
2022-10-19T01:25:05.828Z,8.27
2022-10-19T01:26:05.824Z,8.26
2022-10-19T01:27:05.805Z,8.27
2022-10-19T01:28:05.805Z,8.26
2022-10-19T01:29:05.845Z,8.23
2022-10-19T01:30:05.786Z,8.23
2022-10-19T01:31:05.762Z,8.23
2022-10-19T01:32:05.755Z,8.23
2022-10-19T01:33:05.744Z,8.20
2022-10-19T01:34:05.738Z,8.21
2022-10-19T01:35:05.745Z,8.20
2022-10-19T01:36:05.714Z,8.18
2022-10-19T01:37:05.699Z,8.18
2022-10-19T01:38:05.695Z,8.16
2022-10-19T01:39:05.673Z,8.17
2022-10-19T01:40:05.673Z,8.18
2022-10-19T01:41:05.655Z,8.17
2022-10-19T01:42:05.644Z,8.14
2022-10-19T01:43:05.634Z,8.13
2022-10-19T01:44:05.633Z,8.14
2022-10-19T01:45:05.665Z,8.13
2022-10-19T01:46:05.615Z,8.13
2022-10-19T01:47:05.700Z,8.11
2022-10-19T01:48:05.582Z,8.11
2022-10-19T01:49:05.613Z,8.14
2022-10-19T01:50:05.573Z,8.13
2022-10-19T01:51:05.552Z,8.09
2022-10-19T01:52:05.552Z,8.09
2022-10-19T01:53:05.535Z,8.06
2022-10-19T01:54:05.522Z,8.09
2022-10-19T01:55:05.510Z,8.05
2022-10-19T01:56:05.511Z,8.05
2022-10-19T01:57:05.489Z,8.02
2022-10-19T01:58:08.293Z,8.03
2022-10-19T01:59:05.477Z,8.01
2022-10-19T02:00:05.465Z,8.01
2022-10-19T02:01:05.535Z,7.99
2022-10-19T02:02:05.432Z,7.99
2022-10-19T02:03:05.425Z,7.95
2022-10-19T02:04:05.412Z,7.99
2022-10-19T02:05:05.392Z,7.95
2022-10-19T02:06:05.402Z,7.95
2022-10-19T02:07:05.442Z,7.95
2022-10-19T02:08:05.380Z,7.93
2022-10-19T02:09:05.353Z,7.91
2022-10-19T02:10:05.426Z,7.90
2022-10-19T02:11:05.346Z,7.90
2022-10-19T02:12:05.330Z,7.90
2022-10-19T02:13:05.321Z,7.88
2022-10-19T02:14:05.311Z,7.87
2022-10-19T02:15:05.300Z,7.85
2022-10-19T02:16:05.290Z,7.84
2022-10-19T02:17:05.290Z,7.83
2022-10-19T02:18:05.273Z,7.85
2022-10-19T02:19:05.250Z,7.81
2022-10-19T02:20:05.250Z,7.81
2022-10-19T02:21:05.328Z,7.83
2022-10-19T02:22:05.228Z,7.83
2022-10-19T02:23:05.217Z,7.81
2022-10-19T02:24:05.228Z,7.80
2022-10-19T02:25:05.199Z,7.83
2022-10-19T02:26:05.190Z,7.84
2022-10-19T02:27:05.182Z,7.84
2022-10-19T02:28:05.170Z,7.83
2022-10-19T02:29:05.148Z,7.84
2022-10-19T02:30:05.209Z,7.81
2022-10-19T02:31:05.188Z,7.81
2022-10-19T02:32:05.189Z,7.83
2022-10-19T02:33:05.108Z,7.81
2022-10-19T02:34:05.107Z,7.84
2022-10-19T02:35:05.090Z,7.81
2022-10-19T02:36:05.077Z,7.85
2022-10-19T02:37:05.079Z,7.83
2022-10-19T02:38:05.058Z,7.84
2022-10-19T02:39:05.065Z,7.81
2022-10-19T02:40:05.069Z,7.81
2022-10-19T02:41:05.022Z,7.80
2022-10-19T02:42:05.018Z,7.80
2022-10-19T02:43:05.003Z,7.77
2022-10-19T02:44:04.987Z,7.75
2022-10-19T02:45:04.981Z,7.77
2022-10-19T02:46:04.980Z,7.77
2022-10-19T02:47:05.034Z,7.75
2022-10-19T02:48:04.986Z,7.77
2022-10-19T02:49:04.945Z,7.70
2022-10-19T02:50:04.938Z,7.70
2022-10-19T02:51:04.923Z,7.70
2022-10-19T02:52:04.919Z,7.72
2022-10-19T02:53:04.908Z,7.69
2022-10-19T02:54:05.444Z,7.64
2022-10-19T02:55:04.887Z,7.64
2022-10-19T02:56:04.867Z,7.62
2022-10-19T02:57:04.886Z,7.64
2022-10-19T02:58:04.836Z,7.59
2022-10-19T02:59:04.846Z,7.61
2022-10-19T03:00:04.816Z,7.59
2022-10-19T03:01:04.904Z,7.61
2022-10-19T03:02:04.826Z,7.58
2022-10-19T03:03:04.796Z,7.56
2022-10-19T03:04:04.783Z,7.56
2022-10-19T03:05:04.776Z,7.56
2022-10-19T03:06:04.756Z,7.56
2022-10-19T03:07:04.767Z,7.55
2022-10-19T03:08:04.746Z,7.53
2022-10-19T03:09:04.738Z,7.55
2022-10-19T03:10:04.715Z,7.56
2022-10-19T03:11:04.754Z,7.55
2022-10-19T03:12:04.727Z,7.55
2022-10-19T03:13:04.695Z,7.55
2022-10-19T03:14:04.684Z,7.55
2022-10-19T03:15:04.674Z,7.53
2022-10-19T03:16:04.655Z,7.55
2022-10-19T03:17:04.686Z,7.55
2022-10-19T03:18:04.635Z,7.50
2022-10-19T03:19:04.633Z,7.50
2022-10-19T03:20:04.624Z,7.48
2022-10-19T03:21:04.606Z,7.48
2022-10-19T03:22:04.593Z,7.44
2022-10-19T03:23:04.595Z,7.46
2022-10-19T03:24:04.573Z,7.44
2022-10-19T03:25:04.567Z,7.41
2022-10-19T03:26:05.690Z,7.40
2022-10-19T03:27:04.581Z,7.40
2022-10-19T03:28:04.534Z,7.39
2022-10-19T03:29:04.563Z,7.39
2022-10-19T03:30:04.526Z,7.36
2022-10-19T03:31:04.493Z,7.36
2022-10-19T03:32:04.495Z,7.33
2022-10-19T03:33:04.482Z,7.32
2022-10-19T03:34:04.466Z,7.32
2022-10-19T03:35:04.473Z,7.33
2022-10-19T03:36:04.452Z,7.32
2022-10-19T03:37:04.444Z,7.36
2022-10-19T03:38:04.423Z,7.36
2022-10-19T03:39:04.419Z,7.37
2022-10-19T03:40:04.415Z,7.33
2022-10-19T03:41:04.400Z,7.37
2022-10-19T03:42:04.414Z,7.39
2022-10-19T03:43:04.381Z,7.37
2022-10-19T03:44:04.372Z,7.39
2022-10-19T03:45:04.358Z,7.37
2022-10-19T03:46:04.351Z,7.36
2022-10-19T03:47:04.357Z,7.37
2022-10-19T03:48:04.321Z,7.39
2022-10-19T03:49:04.310Z,7.37
2022-10-19T03:50:04.310Z,7.33
2022-10-19T03:51:04.291Z,7.33
2022-10-19T03:52:04.299Z,7.37
2022-10-19T03:53:04.274Z,7.33
2022-10-19T03:54:04.258Z,7.36
2022-10-19T03:55:04.250Z,7.33
2022-10-19T03:56:04.240Z,7.37
2022-10-19T03:57:04.241Z,7.33
2022-10-19T03:58:04.220Z,7.36
2022-10-19T03:59:04.207Z,7.32
2022-10-19T04:00:04.190Z,7.33
2022-10-19T04:01:04.237Z,7.36
2022-10-19T04:02:04.199Z,7.33
2022-10-19T04:03:04.168Z,7.32
2022-10-19T04:04:04.150Z,7.33
2022-10-19T04:05:04.149Z,7.31
2022-10-19T04:06:04.130Z,7.33
2022-10-19T04:07:04.129Z,7.29
2022-10-19T04:08:04.108Z,7.29
2022-10-19T04:09:04.107Z,7.28
2022-10-19T04:10:04.088Z,7.29
2022-10-19T04:11:04.096Z,7.29
2022-10-19T04:12:04.077Z,7.31
2022-10-19T04:13:04.068Z,7.26
2022-10-19T04:14:04.091Z,7.29
2022-10-19T04:15:04.057Z,7.31
2022-10-19T04:16:04.028Z,7.29
2022-10-19T04:17:04.057Z,7.28
2022-10-19T04:18:04.057Z,7.31
2022-10-19T04:19:04.048Z,7.26
2022-10-19T04:20:03.987Z,7.26
2022-10-19T04:21:03.996Z,7.28
2022-10-19T04:22:03.967Z,7.25
2022-10-19T04:23:04.020Z,7.25
2022-10-19T04:24:03.955Z,7.28
2022-10-19T04:25:03.954Z,7.26
2022-10-19T04:26:03.925Z,7.25
2022-10-19T04:27:03.927Z,7.23
2022-10-19T04:28:03.906Z,7.25
2022-10-19T04:29:04.005Z,7.23
2022-10-19T04:30:03.889Z,7.26
2022-10-19T04:31:03.887Z,7.22
2022-10-19T04:32:03.855Z,7.19
2022-10-19T04:33:03.889Z,7.22
2022-10-19T04:34:03.846Z,7.22
2022-10-19T04:35:03.833Z,7.23
2022-10-19T04:36:03.839Z,7.25
2022-10-19T04:37:03.809Z,7.22
2022-10-19T04:38:03.806Z,7.23
2022-10-19T04:39:03.797Z,7.22
2022-10-19T04:40:03.773Z,7.22
2022-10-19T04:41:03.776Z,7.22
2022-10-19T04:42:03.755Z,7.21
2022-10-19T04:43:03.767Z,7.22
2022-10-19T04:44:03.729Z,7.21
2022-10-19T04:45:03.726Z,7.19
2022-10-19T04:46:03.712Z,7.21
2022-10-19T04:47:03.733Z,7.19
2022-10-19T04:48:03.695Z,7.18
2022-10-19T04:49:03.700Z,7.15
2022-10-19T04:50:03.664Z,7.15
2022-10-19T04:51:03.665Z,7.14
2022-10-19T04:52:03.662Z,7.15
2022-10-19T04:53:03.645Z,7.11
2022-10-19T04:54:03.627Z,7.10
2022-10-19T04:55:03.622Z,7.08
2022-10-19T04:56:03.604Z,7.11
2022-10-19T04:57:03.602Z,7.08
2022-10-19T04:58:03.594Z,7.07
2022-10-19T04:59:03.573Z,7.10
2022-10-19T05:00:03.573Z,7.10
2022-10-19T05:01:03.650Z,7.08
2022-10-19T05:02:03.545Z,7.05
2022-10-19T05:03:03.554Z,7.05
2022-10-19T05:04:03.530Z,7.05
2022-10-19T05:05:03.512Z,7.05
2022-10-19T05:06:03.500Z,7.05
2022-10-19T05:07:03.500Z,7.04
2022-10-19T05:08:03.538Z,7.01
2022-10-19T05:09:03.482Z,7.01
2022-10-19T05:10:03.451Z,7.03
2022-10-19T05:11:03.452Z,7.00
2022-10-19T05:12:03.431Z,7.01
2022-10-19T05:13:03.444Z,6.95
2022-10-19T05:14:03.431Z,6.97
2022-10-19T05:15:03.412Z,6.93
2022-10-19T05:16:03.410Z,6.92
2022-10-19T05:17:03.389Z,6.90
2022-10-19T05:18:03.400Z,6.93
2022-10-19T05:19:03.371Z,6.92
2022-10-19T05:20:03.350Z,6.92
2022-10-19T05:21:03.354Z,6.93
2022-10-19T05:22:03.342Z,6.92
2022-10-19T05:23:06.375Z,6.90
2022-10-19T05:24:03.313Z,6.93
2022-10-19T05:25:03.311Z,6.90
2022-10-19T05:26:03.320Z,6.93
2022-10-19T05:27:03.324Z,6.92
2022-10-19T05:28:03.281Z,6.92
2022-10-19T05:29:03.370Z,6.90
2022-10-19T05:30:03.263Z,6.90
2022-10-19T05:31:03.243Z,6.90
2022-10-19T05:32:03.242Z,6.92
2022-10-19T05:33:03.219Z,6.90
2022-10-19T05:34:03.252Z,6.89
2022-10-19T05:35:03.216Z,6.92
2022-10-19T05:36:03.180Z,6.90
2022-10-19T05:37:03.179Z,6.89
2022-10-19T05:38:03.167Z,6.89
2022-10-19T05:39:03.191Z,6.86
2022-10-19T05:40:03.150Z,6.89
2022-10-19T05:41:03.143Z,6.89
2022-10-19T05:42:03.139Z,6.89
2022-10-19T05:43:03.141Z,6.90
2022-10-19T05:44:03.117Z,6.95
2022-10-19T05:45:03.096Z,6.93
2022-10-19T05:46:03.078Z,6.95
2022-10-19T05:47:03.089Z,6.95
2022-10-19T05:48:03.057Z,6.97
2022-10-19T05:49:03.067Z,6.96
2022-10-19T05:50:03.043Z,7.03
2022-10-19T05:51:03.026Z,7.01
2022-10-19T05:52:03.030Z,7.04
2022-10-19T05:53:03.009Z,7.05
2022-10-19T05:54:03.006Z,7.04
2022-10-19T05:55:03.012Z,7.07
2022-10-19T05:56:02.977Z,7.07
2022-10-19T05:57:02.974Z,7.10
2022-10-19T05:58:02.955Z,7.13
2022-10-19T05:59:02.957Z,7.11
2022-10-19T06:00:02.966Z,7.14
2022-10-19T06:01:02.961Z,7.14
2022-10-19T06:02:02.955Z,7.15
2022-10-19T06:03:02.926Z,7.21
2022-10-19T06:04:03.087Z,7.21
2022-10-19T06:05:02.905Z,7.23
2022-10-19T06:06:02.875Z,7.23
2022-10-19T06:07:02.867Z,7.28
2022-10-19T06:08:02.858Z,7.29
2022-10-19T06:09:02.856Z,7.31
2022-10-19T06:10:02.856Z,7.32
2022-10-19T06:11:02.959Z,7.32
2022-10-19T06:12:02.809Z,7.37
2022-10-19T06:13:02.957Z,7.39
2022-10-19T06:14:02.805Z,7.41
2022-10-19T06:15:02.858Z,7.43
2022-10-19T06:16:02.823Z,7.43
2022-10-19T06:17:02.878Z,7.48
2022-10-19T06:18:02.747Z,7.48
2022-10-19T06:19:02.753Z,7.51
2022-10-19T06:20:02.724Z,7.55
2022-10-19T06:21:02.733Z,7.55
2022-10-19T06:22:02.714Z,7.58
2022-10-19T06:23:02.716Z,7.59
2022-10-19T06:24:02.730Z,7.59
2022-10-19T06:25:02.674Z,7.61
2022-10-19T06:26:02.708Z,7.58
2022-10-19T06:27:02.654Z,7.62
2022-10-19T06:28:02.646Z,7.64
2022-10-19T06:29:02.643Z,7.64
2022-10-19T06:30:02.622Z,7.66
2022-10-19T06:31:05.936Z,7.66
2022-10-19T06:32:03.623Z,7.69
2022-10-19T06:34:02.607Z,7.69
2022-10-19T06:35:02.592Z,7.72
2022-10-19T06:36:02.573Z,7.70
2022-10-19T06:37:02.565Z,7.72
2022-10-19T06:38:02.542Z,7.72
2022-10-19T06:39:02.683Z,7.72
2022-10-19T06:40:06.877Z,7.72
2022-10-19T06:41:02.502Z,7.75
2022-10-19T06:42:02.502Z,7.75
2022-10-19T06:43:02.511Z,7.78
2022-10-19T06:44:02.481Z,7.77
2022-10-19T06:45:02.461Z,7.78
2022-10-19T06:46:02.501Z,7.81
2022-10-19T06:47:02.462Z,7.87
2022-10-19T06:48:05.148Z,7.87
2022-10-19T06:49:03.444Z,7.85
2022-10-19T06:50:02.401Z,7.88
2022-10-19T06:51:02.402Z,7.88
2022-10-19T06:52:02.409Z,7.91
2022-10-19T06:53:02.383Z,7.95
2022-10-19T06:54:02.398Z,7.98
2022-10-19T06:55:02.363Z,7.99
2022-10-19T06:56:02.361Z,8.05
2022-10-19T06:57:02.330Z,8.06
2022-10-19T06:58:02.331Z,8.11
2022-10-19T06:59:02.366Z,8.18
2022-10-19T07:00:02.310Z,8.24
2022-10-19T07:01:02.407Z,8.31
2022-10-19T07:02:02.287Z,8.34
2022-10-19T07:03:02.280Z,8.36
2022-10-19T07:04:02.289Z,8.45
2022-10-19T07:05:06.096Z,8.52
2022-10-19T07:06:02.264Z,8.56
2022-10-19T07:07:02.255Z,8.56
2022-10-19T07:08:02.272Z,8.60
2022-10-19T07:09:02.267Z,8.66
2022-10-19T07:10:02.247Z,8.74
2022-10-19T07:11:02.237Z,8.78
2022-10-19T07:12:02.238Z,8.82
2022-10-19T07:13:02.194Z,8.87
2022-10-19T07:14:02.236Z,8.89
2022-10-19T07:15:02.148Z,8.93
2022-10-19T07:16:02.138Z,9.00
2022-10-19T07:17:02.169Z,9.05
2022-10-19T07:18:02.146Z,9.12
2022-10-19T07:19:02.147Z,9.15
2022-10-19T07:20:02.158Z,9.21
2022-10-19T07:21:02.091Z,9.27
2022-10-19T07:22:02.117Z,9.29
2022-10-19T07:23:02.088Z,9.36
2022-10-19T07:24:02.108Z,9.36
2022-10-19T07:25:02.118Z,9.42
2022-10-19T07:26:02.038Z,9.47
2022-10-19T07:27:02.078Z,9.51
2022-10-19T07:28:02.018Z,9.56
2022-10-19T07:29:02.007Z,9.62
2022-10-19T07:30:02.015Z,9.70
2022-10-19T07:31:01.996Z,9.74
2022-10-19T07:32:01.983Z,9.80
2022-10-19T07:33:01.952Z,9.84
2022-10-19T07:34:01.965Z,9.84
2022-10-19T07:35:01.938Z,9.84
2022-10-19T07:35:56.719Z,9.87
2022-10-19T07:36:56.693Z,9.91
2022-10-19T07:37:56.698Z,9.95
2022-10-19T07:38:56.686Z,10.02
2022-10-19T07:39:56.680Z,10.07
2022-10-19T07:40:56.718Z,10.09
2022-10-19T07:41:56.739Z,10.09
2022-10-19T07:42:56.643Z,10.15
2022-10-19T07:43:56.774Z,10.15
2022-10-19T07:44:56.687Z,10.18
2022-10-19T07:45:56.672Z,10.23
2022-10-19T07:46:56.640Z,10.23
2022-10-19T07:47:56.599Z,10.31
2022-10-19T07:48:56.626Z,10.34
2022-10-19T07:49:56.627Z,10.38
2022-10-19T07:50:56.607Z,10.38
2022-10-19T07:51:56.654Z,10.41
2022-10-19T07:52:56.556Z,10.46
2022-10-19T07:53:56.768Z,10.46
2022-10-19T07:54:56.516Z,10.46
2022-10-19T07:55:56.506Z,10.53
2022-10-19T07:56:56.486Z,10.64
2022-10-19T07:57:56.493Z,10.71
2022-10-19T07:58:56.541Z,10.77
2022-10-19T07:59:56.487Z,10.82
2022-10-19T08:00:56.444Z,10.82
2022-10-19T08:01:56.502Z,10.86
2022-10-19T08:03:31.216Z,10.94
2022-10-19T08:04:43.311Z,11.01
2022-10-19T08:05:01.043Z,11.10
2022-10-19T08:05:57.424Z,11.20
2022-10-19T08:06:56.367Z,11.33
2022-10-19T08:07:56.368Z,11.44
2022-10-19T08:08:56.469Z,11.51
2022-10-19T08:09:56.449Z,11.58
2022-10-19T08:10:56.432Z,11.63
2022-10-19T08:11:56.442Z,11.65
2022-10-19T08:12:56.315Z,11.73
2022-10-19T08:13:56.326Z,11.76
2022-10-19T08:14:56.323Z,11.86
2022-10-19T08:15:56.288Z,11.93
2022-10-19T08:16:56.297Z,11.99
2022-10-19T08:17:56.307Z,12.05
2022-10-19T08:18:56.265Z,12.10
2022-10-19T08:19:56.256Z,12.14
2022-10-19T08:20:56.228Z,12.18
2022-10-19T08:21:56.293Z,12.25
2022-10-19T08:22:58.879Z,12.26
2022-10-19T08:23:56.204Z,12.29
2022-10-19T08:24:56.214Z,12.28
2022-10-19T08:25:56.227Z,12.33
2022-10-19T08:26:56.176Z,12.37
2022-10-19T08:27:56.169Z,12.36
2022-10-19T08:28:56.156Z,12.40
2022-10-19T08:29:56.347Z,12.50
2022-10-19T08:30:56.127Z,12.55
2022-10-19T08:31:56.116Z,12.62
2022-10-19T08:32:56.113Z,12.65
2022-10-19T08:33:56.133Z,12.70
2022-10-19T08:34:56.071Z,12.73
2022-10-19T08:35:56.241Z,12.81
2022-10-19T08:36:56.055Z,12.84
2022-10-19T08:37:58.547Z,12.87
2022-10-19T08:38:56.046Z,12.90
2022-10-19T08:39:56.046Z,12.95
2022-10-19T08:40:56.071Z,13.02
2022-10-19T08:41:55.999Z,13.09
2022-10-19T08:42:56.049Z,13.17
2022-10-19T08:43:56.073Z,13.26
2022-10-19T08:44:55.964Z,13.28
2022-10-19T08:45:55.998Z,13.31
2022-10-19T08:46:55.984Z,13.30
2022-10-19T08:47:56.030Z,13.36
2022-10-19T08:48:56.020Z,13.37
2022-10-19T08:49:55.993Z,13.39
2022-10-19T08:50:55.938Z,13.45
2022-10-19T08:51:55.917Z,13.52
2022-10-19T08:52:55.974Z,13.57
2022-10-19T08:53:55.875Z,13.58
2022-10-19T08:54:55.846Z,13.64
2022-10-19T08:55:57.766Z,13.68
2022-10-19T08:56:55.845Z,13.73
2022-10-19T08:57:55.845Z,13.79
2022-10-19T08:58:55.816Z,13.80
2022-10-19T08:59:55.828Z,13.83
2022-10-19T09:00:55.825Z,13.91
2022-10-19T09:01:55.788Z,13.98
2022-10-19T09:02:55.774Z,14.07
2022-10-19T09:03:56.497Z,14.20
2022-10-19T09:04:58.816Z,14.28
2022-10-19T09:05:55.725Z,14.34
2022-10-19T09:06:55.714Z,14.40
2022-10-19T09:07:55.745Z,14.49
2022-10-19T09:08:55.903Z,14.51
2022-10-19T09:09:55.703Z,14.56
2022-10-19T09:10:55.701Z,14.59
2022-10-19T09:11:55.683Z,14.62
2022-10-19T09:12:58.431Z,14.62
2022-10-19T09:14:04.734Z,14.62
2022-10-19T09:14:56.652Z,14.67
2022-10-19T09:15:55.633Z,14.71
2022-10-19T09:16:55.693Z,14.77
2022-10-19T09:17:55.615Z,14.85
2022-10-19T09:18:55.666Z,14.87
2022-10-19T09:19:55.583Z,14.92
2022-10-19T09:20:55.575Z,14.96
2022-10-19T09:21:55.568Z,15.02
2022-10-19T09:22:55.760Z,15.10
2022-10-19T09:23:55.582Z,15.11
2022-10-19T09:24:55.542Z,15.11
2022-10-19T09:25:55.525Z,15.15
2022-10-19T09:26:55.661Z,15.19
2022-10-19T09:27:55.523Z,15.26
2022-10-19T09:28:55.512Z,15.30
2022-10-19T09:29:55.486Z,15.37
2022-10-19T09:30:55.526Z,15.43
2022-10-19T09:31:55.530Z,15.45
2022-10-19T09:32:55.443Z,15.47
2022-10-19T09:33:55.453Z,15.55
2022-10-19T09:34:55.504Z,15.63
2022-10-19T09:35:55.551Z,15.62
2022-10-19T09:36:55.475Z,15.66
2022-10-19T09:37:55.424Z,15.84
2022-10-19T09:38:55.428Z,15.99
2022-10-19T09:39:55.950Z,15.94
2022-10-19T09:40:55.380Z,15.94
2022-10-19T09:41:55.363Z,15.91
2022-10-19T09:42:55.397Z,16.02
2022-10-19T09:43:55.369Z,16.06
2022-10-19T09:44:55.347Z,16.08
2022-10-19T09:45:55.335Z,16.05
2022-10-19T09:46:55.415Z,16.10
2022-10-19T09:47:55.314Z,16.24
2022-10-19T09:48:55.680Z,16.29
2022-10-19T09:49:55.278Z,16.34
2022-10-19T09:50:55.306Z,16.31
2022-10-19T09:51:55.258Z,16.26
2022-10-19T09:52:55.286Z,16.29
2022-10-19T09:53:55.243Z,16.36
2022-10-19T09:54:55.228Z,16.43
2022-10-19T09:55:55.323Z,16.43
2022-10-19T09:56:55.244Z,16.43
2022-10-19T09:57:55.220Z,16.43
2022-10-19T09:58:55.185Z,16.34
2022-10-19T09:59:55.228Z,16.32
2022-10-19T10:00:55.147Z,16.31
2022-10-19T10:01:55.207Z,16.29
2022-10-19T10:02:55.130Z,16.24
2022-10-19T10:03:56.059Z,16.28
2022-10-19T10:04:55.105Z,16.21
2022-10-19T10:05:55.133Z,16.12
2022-10-19T10:06:55.073Z,16.12
2022-10-19T10:07:55.125Z,16.13
2022-10-19T10:08:55.127Z,16.12
2022-10-19T10:09:55.083Z,16.12
2022-10-19T10:10:55.136Z,16.05
2022-10-19T10:12:55.032Z,16.03
2022-10-19T10:13:55.038Z,15.96
2022-10-19T10:14:55.006Z,15.98
2022-10-19T10:15:55.033Z,16.02
2022-10-19T10:16:54.985Z,15.94
2022-10-19T10:17:54.965Z,15.90
2022-10-19T10:18:54.982Z,15.94
2022-10-19T10:19:54.954Z,15.94
2022-10-19T10:20:54.932Z,16.03
2022-10-19T10:21:54.933Z,16.08
2022-10-19T10:22:54.914Z,16.12
2022-10-19T10:23:54.906Z,16.18
2022-10-19T10:24:54.908Z,16.29
2022-10-19T10:25:54.875Z,16.36
2022-10-19T10:26:54.898Z,16.32
2022-10-19T10:27:54.904Z,16.29
2022-10-19T10:28:57.852Z,16.32
2022-10-19T10:30:54.825Z,16.50
2022-10-19T10:31:54.849Z,16.72
2022-10-19T10:32:54.899Z,16.80
2022-10-19T10:33:54.797Z,16.91
2022-10-19T10:34:57.059Z,17.04
2022-10-19T10:35:55.778Z,16.84
2022-10-19T10:36:54.792Z,16.62
2022-10-19T10:37:54.760Z,16.73
2022-10-19T10:38:54.785Z,16.98
2022-10-19T10:39:56.681Z,17.23
2022-10-19T10:40:54.722Z,17.34
2022-10-19T10:41:54.714Z,17.49
2022-10-19T10:42:54.704Z,17.52
2022-10-19T10:43:55.417Z,17.53
2022-10-19T10:44:54.706Z,17.59
2022-10-19T10:45:54.653Z,17.59
2022-10-19T10:46:54.654Z,17.56
2022-10-19T10:47:54.713Z,17.47
2022-10-19T10:48:54.675Z,17.42
2022-10-19T10:49:54.635Z,17.54
2022-10-19T10:50:54.716Z,17.41
2022-10-19T10:51:54.612Z,17.20
2022-10-19T10:52:54.588Z,17.16
2022-10-19T10:53:54.599Z,17.05
2022-10-19T10:54:54.582Z,17.05
2022-10-19T10:55:54.566Z,17.20
2022-10-19T10:56:54.555Z,17.41
2022-10-19T10:57:54.540Z,17.63
2022-10-19T10:58:54.650Z,17.76
2022-10-19T10:59:54.583Z,17.80
2022-10-19T11:00:54.602Z,18.06
2022-10-19T11:01:54.545Z,18.27
2022-10-19T11:02:54.506Z,18.36
2022-10-19T11:03:54.477Z,18.53
2022-10-19T11:04:54.465Z,18.64
2022-10-19T11:05:54.538Z,18.82
2022-10-19T11:06:54.425Z,19.00
2022-10-19T11:07:54.407Z,19.17
2022-10-19T11:08:54.502Z,19.20
2022-10-19T11:09:54.856Z,19.39
2022-10-19T11:10:54.471Z,19.66
2022-10-19T11:11:54.395Z,20.00
2022-10-19T11:12:54.437Z,20.39
2022-10-19T11:13:54.365Z,20.71
2022-10-19T11:14:54.411Z,20.92
2022-10-19T11:15:54.348Z,21.15
2022-10-19T11:16:54.511Z,21.29
2022-10-19T11:17:54.316Z,21.50
2022-10-19T11:18:54.323Z,21.78
2022-10-19T11:19:54.321Z,22.06
2022-10-19T11:20:54.295Z,22.47
2022-10-19T11:21:54.277Z,22.80
2022-10-19T11:22:54.277Z,23.04
2022-10-19T11:23:54.245Z,23.48
2022-10-19T11:24:54.267Z,23.92
2022-10-19T11:25:54.226Z,24.32
2022-10-19T11:26:54.220Z,24.71
2022-10-19T11:27:54.209Z,24.56
2022-10-19T11:28:54.290Z,24.84
2022-10-19T11:29:54.207Z,24.99
2022-10-19T11:30:54.188Z,25.06
2022-10-19T11:31:54.167Z,25.04
2022-10-19T11:32:54.168Z,24.96
2022-10-19T11:33:54.196Z,24.40
2022-10-19T11:34:54.169Z,24.48
2022-10-19T11:35:54.177Z,24.40
2022-10-19T11:36:54.212Z,24.22
2022-10-19T11:38:17.503Z,24.13
2022-10-19T11:38:55.108Z,24.25
2022-10-19T11:39:54.123Z,24.40
2022-10-19T11:41:55.196Z,24.16
2022-10-19T11:42:54.109Z,24.50
2022-10-19T11:43:54.038Z,24.89
2022-10-19T11:44:54.103Z,24.88
2022-10-19T11:45:54.060Z,24.48
2022-10-19T11:46:54.037Z,24.40
2022-10-19T11:47:54.020Z,24.18
2022-10-19T11:48:54.956Z,24.21
2022-10-19T11:49:53.988Z,24.11
2022-10-19T11:50:58.571Z,24.24
2022-10-19T11:51:54.980Z,24.18
2022-10-19T11:52:53.968Z,24.18
2022-10-19T11:53:54.085Z,24.26
2022-10-19T11:54:53.939Z,24.62
2022-10-19T11:55:53.915Z,24.38
2022-10-19T11:57:11.474Z,24.56
2022-10-19T11:57:54.905Z,24.77
2022-10-19T11:58:54.023Z,24.41
2022-10-19T11:59:57.512Z,24.86
2022-10-19T12:00:54.873Z,25.21
2022-10-19T12:01:54.005Z,25.24
2022-10-19T12:02:53.956Z,25.06
2022-10-19T12:03:53.878Z,25.14
2022-10-19T12:04:53.841Z,25.25
2022-10-19T12:05:53.812Z,25.93
2022-10-19T12:06:53.816Z,26.37
2022-10-19T12:07:53.791Z,26.33
2022-10-19T12:08:56.126Z,26.67
2022-10-19T12:09:53.887Z,27.05
2022-10-19T12:10:53.787Z,27.04
2022-10-19T12:11:53.808Z,27.11
2022-10-19T12:12:53.802Z,27.13
2022-10-19T12:13:53.735Z,27.07
2022-10-19T12:14:53.705Z,27.16
2022-10-19T12:15:53.926Z,27.29
2022-10-19T12:16:53.673Z,27.43
2022-10-19T12:17:53.663Z,27.68
2022-10-19T12:18:53.681Z,27.86
2022-10-19T12:19:53.656Z,28.23
2022-10-19T12:20:53.679Z,28.80
2022-10-19T12:21:53.624Z,28.87
2022-10-19T12:22:53.699Z,28.94
2022-10-19T12:23:53.598Z,28.82
2022-10-19T12:24:53.611Z,29.09
2022-10-19T12:25:53.701Z,28.97
2022-10-19T12:26:53.680Z,28.93
2022-10-19T12:27:53.544Z,28.71
2022-10-19T12:28:53.559Z,28.68
2022-10-19T12:29:53.544Z,28.75
2022-10-19T12:30:53.544Z,28.74
2022-10-19T12:31:53.532Z,28.60
2022-10-19T12:32:54.435Z,28.31
2022-10-19T12:33:53.538Z,28.43
2022-10-19T12:34:53.567Z,28.43
2022-10-19T12:35:53.570Z,28.46
2022-10-19T12:36:53.456Z,28.46
2022-10-19T12:37:53.487Z,28.35
2022-10-19T12:39:00.169Z,28.56
2022-10-19T12:39:54.437Z,28.57
2022-10-19T12:40:53.536Z,28.52
2022-10-19T12:41:53.407Z,28.34
2022-10-19T12:42:53.420Z,27.97
2022-10-19T12:43:53.409Z,27.64
2022-10-19T12:44:56.250Z,27.34
2022-10-19T12:45:54.357Z,27.20
2022-10-19T12:46:54.646Z,27.25
2022-10-19T12:47:53.454Z,27.60
2022-10-19T12:48:53.335Z,27.72
2022-10-19T12:49:53.367Z,28.04
2022-10-19T12:50:53.314Z,28.47
2022-10-19T12:51:53.313Z,28.53
2022-10-19T12:52:53.294Z,28.15
2022-10-19T12:53:53.266Z,28.15
2022-10-19T12:54:53.272Z,28.20
2022-10-19T12:55:53.339Z,27.68
2022-10-19T12:56:53.272Z,27.01
2022-10-19T12:57:53.231Z,25.66
2022-10-19T12:58:53.372Z,24.93
2022-10-19T12:59:53.304Z,24.25
2022-10-19T13:00:53.265Z,24.01
2022-10-19T13:01:53.206Z,23.16
2022-10-19T13:02:53.203Z,22.34
2022-10-19T13:03:53.230Z,21.99
2022-10-19T13:04:53.180Z,22.00
2022-10-19T13:05:53.196Z,21.63
2022-10-19T13:06:53.183Z,21.23
2022-10-19T13:07:53.129Z,21.00
2022-10-19T13:08:53.179Z,20.75
2022-10-19T13:09:53.103Z,20.71
2022-10-19T13:10:53.180Z,20.71